Vision of The Seas — C6SE8 — position and weather

sailwx.info

Track history (hours):
 
Tides and Currents Weather Stations Pressure Air Temp Water Temp Dewpoint Dewpoint Depression Visibility Wind Speed Wind Dir Waves Ship Positions

Vision of The Seas

Operator: Royal Caribbean Cruises Ltd

Last reported at 2017-Nov-18 23:40 UTC. Time now 2017-Nov-23 07:42 UTC.
Position N 20°38' W 086°54'.

Type: Passenger vessel. MMSI: 311321000.

Date/timePositionNaut miles runAvg speedWind from/ knotsBaromVisibWave heightAir tempDewpointWater temp
2017-Nov-18 23:40N 20°38' W 086°54'422.2
2017-Nov-18 23:30N 20°35' W 086°56'612.5
2017-Nov-18 23:00N 20°29' W 086°59'0 0.0
2017-Nov-18 22:28N 20°29' W 086°59'0 0.0
2017-Nov-18 21:55N 20°29' W 086°59'0 0.0
2017-Nov-18 21:25N 20°29' W 086°59'0 0.0
2017-Nov-18 20:58N 20°29' W 086°59'0 0.0
2017-Nov-18 20:28N 20°29' W 086°59'0 0.0
2017-Nov-18 19:58N 20°29' W 086°59'0 0.0
2017-Nov-18 19:25N 20°29' W 086°59'0 0.0
2017-Nov-18 18:55N 20°29' W 086°59'0 0.0
2017-Nov-18 18:28N 20°29' W 086°59'0 0.0
2017-Nov-18 17:58N 20°29' W 086°59'0 0.0
2017-Nov-18 17:28N 20°29' W 086°59'0 0.0
2017-Nov-18 16:58N 20°29' W 086°59'0 0.0
2017-Nov-18 16:28N 20°29' W 086°59'0 0.0
2017-Nov-18 15:58N 20°29' W 086°59'0 0.0
2017-Nov-18 15:28N 20°29' W 086°59'0 0.0
2017-Nov-18 14:55N 20°29' W 086°59'0 0.0
2017-Nov-18 14:28N 20°29' W 086°59'0 0.0
2017-Nov-18 13:58N 20°29' W 086°59'0 0.8
2017-Nov-18 13:30N 20°29' W 086°59'5 9.7
2017-Nov-18 13:00N 20°34' W 086°59'612.5
2017-Nov-18 12:30N 20°39' W 086°54'18014.4
2017-Nov-18 00:00N 23°24' W 088°12'47819.9 080 / 121014.0 25.025.026.0
2017-Nov-17 00:00N 29°06' W 094°24'24 2.0 100 / 101016.010.8 23.021.621.0
2017-Nov-16 12:12N 29°20' W 094°46'211.4
2017-Nov-16 12:00N 29°21' W 094°44'22618.8
2017-Nov-16 00:00N 26°42' W 091°42'44918.5 090 / 101015.010.8 24.024.025.0
2017-Nov-14 23:41N 20°39' W 086°53'317.5
2017-Nov-14 23:30N 20°37' W 086°55'612.6
2017-Nov-14 23:00N 20°31' W 086°57'0 0.2
2017-Nov-14 22:30N 20°31' W 086°57'0 0.0
2017-Nov-14 22:00N 20°31' W 086°57'0 0.0
2017-Nov-14 21:27N 20°31' W 086°57'0 0.0
2017-Nov-14 21:00N 20°31' W 086°57'0 0.0
2017-Nov-14 20:30N 20°31' W 086°57'0 0.0
2017-Nov-14 20:00N 20°31' W 086°57'0 0.0
2017-Nov-14 19:30N 20°31' W 086°57'0 0.0
2017-Nov-14 19:00N 20°31' W 086°57'0 0.0
2017-Nov-14 18:30N 20°31' W 086°57'0 0.0
2017-Nov-14 18:00N 20°31' W 086°57'0 0.0
2017-Nov-14 17:30N 20°31' W 086°57'0 0.0
2017-Nov-14 17:00N 20°31' W 086°57'0 0.0
2017-Nov-14 16:30N 20°31' W 086°57'0 0.0
2017-Nov-14 16:00N 20°31' W 086°57'0 0.0
2017-Nov-14 15:30N 20°31' W 086°57'0 0.0
2017-Nov-14 15:00N 20°31' W 086°57'0 0.0
2017-Nov-14 14:27N 20°31' W 086°57'0 0.0
2017-Nov-14 14:00N 20°31' W 086°57'0 0.0
2017-Nov-14 13:30N 20°31' W 086°57'0 0.0
2017-Nov-14 13:00N 20°31' W 086°57'0 0.1
2017-Nov-14 12:31N 20°31' W 086°57'3 6.1
2017-Nov-14 12:00N 20°31' W 087°01'612.9
2017-Nov-14 11:30N 20°25' W 087°04'713.9
2017-Nov-14 10:59N 20°18' W 087°05'146 4.6
2017-Nov-13 03:00N 22°42' W 087°30'55914.4 100 / 191015.010.8 26.024.627.0
2017-Nov-11 12:15N 29°19' W 094°47'2 7.9
2017-Nov-11 12:00N 29°21' W 094°45'67419.1
2017-Nov-10 00:38N 20°41' W 086°52'322.1
2017-Nov-10 00:29N 20°38' W 086°54'919.3
2017-Nov-10 00:00N 20°30' W 086°59'1 1.3
2017-Nov-09 23:30N 20°29' W 086°59'0 0.1
2017-Nov-09 23:00N 20°29' W 086°59'0 0.2
2017-Nov-09 22:30N 20°29' W 086°58'0 0.0
2017-Nov-09 22:00N 20°29' W 086°58'0 0.2
2017-Nov-09 21:30N 20°29' W 086°58'0 0.3
2017-Nov-09 21:00N 20°29' W 086°59'0 0.1
2017-Nov-09 20:30N 20°29' W 086°59'0 0.0
2017-Nov-09 20:00N 20°29' W 086°59'0 0.0
2017-Nov-09 19:30N 20°29' W 086°59'0 0.0
2017-Nov-09 19:00N 20°29' W 086°59'0 0.1
2017-Nov-09 18:30N 20°29' W 086°59'0 0.0
2017-Nov-09 18:00N 20°29' W 086°59'0 0.0
2017-Nov-09 17:30N 20°29' W 086°59'0 0.0
2017-Nov-09 17:00N 20°29' W 086°59'0 0.1
2017-Nov-09 16:30N 20°29' W 086°59'0 0.1
2017-Nov-09 16:00N 20°29' W 086°59'0 0.1
2017-Nov-09 15:30N 20°29' W 086°59'0 0.1
2017-Nov-09 15:00N 20°29' W 086°59'0 0.2
2017-Nov-09 14:30N 20°29' W 086°59'0 0.1
2017-Nov-09 14:00N 20°29' W 086°59'1 2.4
2017-Nov-09 13:30N 20°30' W 086°58'510.3
2017-Nov-09 13:00N 20°35' W 086°58'714.8
2017-Nov-09 12:30N 20°41' W 086°53'7421.0
2017-Nov-09 09:00N 21°36' W 086°00'   060 / 171013.0 25.0 25.0
Track history (hours):
 
Tides and Currents Weather Stations Pressure Air Temp Water Temp Dewpoint Dewpoint Depression Visibility Wind Speed Wind Dir Waves Ship Positions

Vision of The Seas

Operator: Royal Caribbean Cruises Ltd

Last reported at 2017-Nov-18 23:40 UTC. Time now 2017-Nov-23 07:42 UTC.
Position N 20°38' W 086°54'.

Type: Passenger vessel. MMSI: 311321000.

Date/timePositionNaut miles runAvg speedWind from/ knotsBaromVisibWave heightAir tempDewpointWater temp
2017-Nov-18 23:40N 20°38' W 086°54'422.2
2017-Nov-18 23:30N 20°35' W 086°56'612.5
2017-Nov-18 23:00N 20°29' W 086°59'0 0.0
2017-Nov-18 22:28N 20°29' W 086°59'0 0.0
2017-Nov-18 21:55N 20°29' W 086°59'0 0.0
2017-Nov-18 21:25N 20°29' W 086°59'0 0.0
2017-Nov-18 20:58N 20°29' W 086°59'0 0.0
2017-Nov-18 20:28N 20°29' W 086°59'0 0.0
2017-Nov-18 19:58N 20°29' W 086°59'0 0.0
2017-Nov-18 19:25N 20°29' W 086°59'0 0.0
2017-Nov-18 18:55N 20°29' W 086°59'0 0.0
2017-Nov-18 18:28N 20°29' W 086°59'0 0.0
2017-Nov-18 17:58N 20°29' W 086°59'0 0.0
2017-Nov-18 17:28N 20°29' W 086°59'0 0.0
2017-Nov-18 16:58N 20°29' W 086°59'0 0.0
2017-Nov-18 16:28N 20°29' W 086°59'0 0.0
2017-Nov-18 15:58N 20°29' W 086°59'0 0.0
2017-Nov-18 15:28N 20°29' W 086°59'0 0.0
2017-Nov-18 14:55N 20°29' W 086°59'0 0.0
2017-Nov-18 14:28N 20°29' W 086°59'0 0.0
2017-Nov-18 13:58N 20°29' W 086°59'0 0.8
2017-Nov-18 13:30N 20°29' W 086°59'5 9.7
2017-Nov-18 13:00N 20°34' W 086°59'612.5
2017-Nov-18 12:30N 20°39' W 086°54'18014.4
2017-Nov-18 00:00N 23°24' W 088°12'47819.9 080 / 121014.0 25.025.026.0
2017-Nov-17 00:00N 29°06' W 094°24'24 2.0 100 / 101016.010.8 23.021.621.0
2017-Nov-16 12:12N 29°20' W 094°46'211.4
2017-Nov-16 12:00N 29°21' W 094°44'22618.8
2017-Nov-16 00:00N 26°42' W 091°42'44918.5 090 / 101015.010.8 24.024.025.0
2017-Nov-14 23:41N 20°39' W 086°53'317.5
2017-Nov-14 23:30N 20°37' W 086°55'612.6
2017-Nov-14 23:00N 20°31' W 086°57'0 0.2
2017-Nov-14 22:30N 20°31' W 086°57'0 0.0
2017-Nov-14 22:00N 20°31' W 086°57'0 0.0
2017-Nov-14 21:27N 20°31' W 086°57'0 0.0
2017-Nov-14 21:00N 20°31' W 086°57'0 0.0
2017-Nov-14 20:30N 20°31' W 086°57'0 0.0
2017-Nov-14 20:00N 20°31' W 086°57'0 0.0
2017-Nov-14 19:30N 20°31' W 086°57'0 0.0
2017-Nov-14 19:00N 20°31' W 086°57'0 0.0
2017-Nov-14 18:30N 20°31' W 086°57'0 0.0
2017-Nov-14 18:00N 20°31' W 086°57'0 0.0
2017-Nov-14 17:30N 20°31' W 086°57'0 0.0
2017-Nov-14 17:00N 20°31' W 086°57'0 0.0
2017-Nov-14 16:30N 20°31' W 086°57'0 0.0
2017-Nov-14 16:00N 20°31' W 086°57'0 0.0
2017-Nov-14 15:30N 20°31' W 086°57'0 0.0
2017-Nov-14 15:00N 20°31' W 086°57'0 0.0
2017-Nov-14 14:27N 20°31' W 086°57'0 0.0
2017-Nov-14 14:00N 20°31' W 086°57'0 0.0
2017-Nov-14 13:30N 20°31' W 086°57'0 0.0
2017-Nov-14 13:00N 20°31' W 086°57'0 0.1
2017-Nov-14 12:31N 20°31' W 086°57'3 6.1
2017-Nov-14 12:00N 20°31' W 087°01'612.9
2017-Nov-14 11:30N 20°25' W 087°04'713.9
2017-Nov-14 10:59N 20°18' W 087°05'146 4.6
2017-Nov-13 03:00N 22°42' W 087°30'55914.4 100 / 191015.010.8 26.024.627.0
2017-Nov-11 12:15N 29°19' W 094°47'2 7.9
2017-Nov-11 12:00N 29°21' W 094°45'67419.1
2017-Nov-10 00:38N 20°41' W 086°52'322.1
2017-Nov-10 00:29N 20°38' W 086°54'919.3
2017-Nov-10 00:00N 20°30' W 086°59'1 1.3
2017-Nov-09 23:30N 20°29' W 086°59'0 0.1
2017-Nov-09 23:00N 20°29' W 086°59'0 0.2
2017-Nov-09 22:30N 20°29' W 086°58'0 0.0
2017-Nov-09 22:00N 20°29' W 086°58'0 0.2
2017-Nov-09 21:30N 20°29' W 086°58'0 0.3
2017-Nov-09 21:00N 20°29' W 086°59'0 0.1
2017-Nov-09 20:30N 20°29' W 086°59'0 0.0
2017-Nov-09 20:00N 20°29' W 086°59'0 0.0
2017-Nov-09 19:30N 20°29' W 086°59'0 0.0
2017-Nov-09 19:00N 20°29' W 086°59'0 0.1
2017-Nov-09 18:30N 20°29' W 086°59'0 0.0
2017-Nov-09 18:00N 20°29' W 086°59'0 0.0
2017-Nov-09 17:30N 20°29' W 086°59'0 0.0
2017-Nov-09 17:00N 20°29' W 086°59'0 0.1
2017-Nov-09 16:30N 20°29' W 086°59'0 0.1
2017-Nov-09 16:00N 20°29' W 086°59'0 0.1
2017-Nov-09 15:30N 20°29' W 086°59'0 0.1
2017-Nov-09 15:00N 20°29' W 086°59'0 0.2
2017-Nov-09 14:30N 20°29' W 086°59'0 0.1
2017-Nov-09 14:00N 20°29' W 086°59'1 2.4
2017-Nov-09 13:30N 20°30' W 086°58'510.3
2017-Nov-09 13:00N 20°35' W 086°58'714.8
2017-Nov-09 12:30N 20°41' W 086°53'7421.0
2017-Nov-09 09:00N 21°36' W 086°00'   060 / 171013.0 25.0 25.0

Dump ship's entire track history